Time;durP1;ratioP1;P1;durP2;ratioP2;P2;SDS_P1;SDS_P2;PMS_P1;PMS_P2;Temp;Humidity;BMP_temperature;BMP_pressure;BME280_temperature;BME280_humidity;BME280_pressure;Samples;Min_cycle;Max_cycle;Signal;HPM_P1;HPM_P2
2024/01/23 00:00:37;;;;;;;498.27;283.15;;;-0.80;99.90;;;;;;6186363;23;20023;-78
2024/01/23 00:03:06;;;;;;;557.88;307.20;;;-0.90;99.90;;;;;;6191138;23;20056;-78
2024/01/23 00:05:33;;;;;;;524.72;293.80;;;-0.80;1.00;;;;;;6244528;23;20047;-79
2024/01/23 00:08:03;;;;;;;521.10;293.00;;;-0.90;99.90;;;;;;6232850;23;20016;-79
2024/01/23 00:10:30;;;;;;;537.67;311.17;;;-0.80;1.00;;;;;;6188976;23;20021;-79
2024/01/23 00:12:57;;;;;;;559.95;323.70;;;-0.80;1.00;;;;;;6224069;23;20023;-78
2024/01/23 00:15:25;;;;;;;559.05;321.85;;;-0.70;99.90;;;;;;6223676;23;20012;-77
2024/01/23 00:17:53;;;;;;;537.10;310.95;;;-0.80;1.00;;;;;;6187060;23;20024;-78
2024/01/23 00:20:22;;;;;;;563.97;322.38;;;-1.00;99.90;;;;;;6223434;23;20023;-79
2024/01/23 00:22:49;;;;;;;537.22;304.17;;;-1.00;1.00;;;;;;6222393;23;20042;-77
2024/01/23 00:25:16;;;;;;;574.15;327.92;;;-1.00;1.00;;;;;;6222757;23;20087;-78
2024/01/23 00:27:44;;;;;;;540.55;310.58;;;-0.90;1.00;;;;;;6222489;23;20021;-79
2024/01/23 00:30:13;;;;;;;521.58;298.75;;;-1.20;99.90;;;;;;6186072;23;20024;-79
2024/01/23 00:32:41;;;;;;;471.90;273.20;;;-1.10;1.00;;;;;;6222707;23;20098;-78
2024/01/23 00:35:09;;;;;;;433.90;257.40;;;-1.20;1.00;;;;;;6223137;23;20441;-78
2024/01/23 00:37:38;;;;;;;402.27;235.32;;;-1.10;1.00;;;;;;6223116;23;20009;-78
2024/01/23 00:40:07;;;;;;;418.42;239.25;;;-1.10;99.90;;;;;;6223090;23;20016;-77
2024/01/23 00:42:35;;;;;;;514.50;286.98;;;-1.10;1.00;;;;;;6186455;23;20028;-78
2024/01/23 00:45:03;;;;;;;496.73;272.88;;;-1.00;1.00;;;;;;6221857;23;20036;-79
2024/01/23 00:47:31;;;;;;;475.52;269.42;;;-0.90;1.00;;;;;;6222997;23;20036;-77
2024/01/23 00:49:59;;;;;;;531.67;302.88;;;-0.90;99.90;;;;;;6222805;23;20460;-77
2024/01/23 00:52:26;;;;;;;500.20;281.75;;;-0.80;1.00;;;;;;6222358;23;20016;-78
2024/01/23 00:54:58;;;;;;;493.05;284.52;;;-0.70;99.90;;;;;;6221569;23;20012;-78
2024/01/23 00:57:26;;;;;;;456.23;269.98;;;-0.90;1.00;;;;;;6222707;23;20441;-79
2024/01/23 00:59:53;;;;;;;439.50;258.90;;;-1.00;99.90;;;;;;6223681;23;20489;-79
2024/01/23 01:02:21;;;;;;;452.63;268.85;;;-1.00;1.00;;;;;;6222685;23;20384;-78
2024/01/23 01:04:48;;;;;;;476.85;277.45;;;-1.10;99.90;;;;;;6222581;23;20619;-79
2024/01/23 01:07:16;;;;;;;472.60;266.23;;;-1.10;1.00;;;;;;6222429;23;20476;-79
2024/01/23 01:09:43;;;;;;;447.85;250.60;;;-1.00;1.00;;;;;;6222717;23;20096;-80
2024/01/23 01:12:13;;;;;;;499.98;285.35;;;-0.90;99.90;;;;;;6222069;23;20039;-77
2024/01/23 01:14:40;;;;;;;512.28;291.15;;;-0.90;99.90;;;;;;6221777;23;20008;-78
2024/01/23 01:17:08;;;;;;;467.45;274.20;;;-0.90;1.00;;;;;;6222083;23;20012;-77
2024/01/23 01:19:35;;;;;;;473.55;277.20;;;-1.00;99.90;;;;;;6222632;23;20023;-79
2024/01/23 01:22:03;;;;;;;420.30;251.93;;;-1.10;1.00;;;;;;6222030;23;20622;-79
2024/01/23 01:24:31;;;;;;;422.05;250.20;;;-1.10;99.90;;;;;;6222312;23;20016;-79
2024/01/23 01:26:58;;;;;;;406.20;235.48;;;-1.10;1.00;;;;;;6222432;23;20404;-79
2024/01/23 01:29:27;;;;;;;370.27;216.52;;;-1.10;1.00;;;;;;6185883;23;20063;-77
2024/01/23 01:31:55;;;;;;;342.40;193.32;;;-1.10;99.90;;;;;;6222343;23;20091;-78
2024/01/23 01:34:22;;;;;;;323.63;183.85;;;-1.00;99.90;;;;;;6222809;23;20017;-79
2024/01/23 01:36:50;;;;;;;317.67;181.75;;;-1.00;1.00;;;;;;6226285;23;20008;-78
2024/01/23 01:39:17;;;;;;;336.48;186.98;;;-0.80;1.00;;;;;;6225286;23;20009;-79
2024/01/23 01:41:45;;;;;;;304.17;171.73;;;-0.70;1.00;;;;;;6226736;23;20020;-78
2024/01/23 01:44:12;;;;;;;312.45;174.05;;;-0.50;1.00;;;;;;6193405;23;20012;-79
2024/01/23 01:46:43;;;;;;;299.73;169.57;;;-0.70;99.90;;;;;;6231340;23;20021;-77
2024/01/23 01:49:12;;;;;;;296.48;162.38;;;-0.60;1.00;;;;;;6222937;23;20047;-80
2024/01/23 01:51:39;;;;;;;313.30;181.65;;;-0.70;1.00;;;;;;6221687;23;20023;-79
2024/01/23 01:54:08;;;;;;;263.10;147.95;;;-0.70;1.00;;;;;;6215128;23;20024;-78
2024/01/23 01:56:36;;;;;;;236.73;133.93;;;-0.70;1.00;;;;;;6221349;23;20016;-77
2024/01/23 01:59:03;;;;;;;258.80;139.60;;;-0.80;99.90;;;;;;6186019;23;20020;-77
2024/01/23 02:01:31;;;;;;;256.60;145.98;;;-0.70;1.00;;;;;;6230210;23;20016;-77
2024/01/23 02:04:00;;;;;;;261.80;147.85;;;-0.50;99.90;;;;;;6248924;22;20012;-78
2024/01/23 02:06:30;;;;;;;261.90;150.25;;;-0.40;97.70;;;;;;6237489;23;20020;-79
2024/01/23 02:08:59;;;;;;;274.85;153.05;;;-0.40;99.90;;;;;;6187421;23;20048;-78
2024/01/23 02:11:26;;;;;;;285.85;156.70;;;-0.30;1.00;;;;;;6187602;23;20020;-79
2024/01/23 02:13:54;;;;;;;315.08;174.60;;;-0.30;1.00;;;;;;6223266;23;20084;-77
2024/01/23 02:16:21;;;;;;;314.90;179.77;;;-0.40;99.90;;;;;;6223139;23;20021;-78
2024/01/23 02:18:49;;;;;;;334.63;191.82;;;-0.30;99.90;;;;;;6185900;23;20027;-78
2024/01/23 02:21:18;;;;;;;329.52;191.82;;;-0.30;99.90;;;;;;6222271;23;20023;-78
2024/01/23 02:23:46;;;;;;;282.17;158.25;;;-0.20;99.90;;;;;;6221400;23;20035;-77
2024/01/23 02:26:16;;;;;;;276.65;160.05;;;-0.20;70.10;;;;;;6222340;23;20084;-78
2024/01/23 02:28:43;;;;;;;256.02;143.20;;;-0.30;1.00;;;;;;6220172;23;20016;-78
2024/01/23 02:31:11;;;;;;;304.55;171.23;;;-0.30;1.00;;;;;;6185550;23;20457;-78
2024/01/23 02:33:38;;;;;;;293.85;160.63;;;-0.30;63.30;;;;;;6235870;22;20012;-78
2024/01/23 02:36:06;;;;;;;289.85;159.63;;;-0.40;5.90;;;;;;6250135;22;20005;-77
2024/01/23 02:38:34;;;;;;;290.65;163.50;;;-0.50;1.00;;;;;;6235586;22;20013;-77
2024/01/23 02:41:03;;;;;;;283.38;159.77;;;-0.40;1.00;;;;;;6227902;23;20020;-78
2024/01/23 02:43:30;;;;;;;284.23;161.90;;;-0.40;1.00;;;;;;6223188;23;20457;-79
2024/01/23 02:45:58;;;;;;;314.73;171.25;;;-0.50;1.00;;;;;;6224397;23;20012;-78
2024/01/23 02:48:25;;;;;;;307.75;173.55;;;-0.40;1.00;;;;;;6222996;23;20078;-77
2024/01/23 02:50:53;;;;;;;305.10;175.90;;;-0.50;99.90;;;;;;6222280;23;20521;-78
2024/01/23 02:53:20;;;;;;;305.73;173.43;;;-0.50;99.90;;;;;;6222234;23;20087;-79
2024/01/23 02:55:48;;;;;;;297.92;174.38;;;-0.60;1.00;;;;;;6221936;23;20012;-77
2024/01/23 02:58:18;;;;;;;268.48;154.75;;;-0.80;1.00;;;;;;6221940;23;20084;-77
2024/01/23 03:00:45;;;;;;;267.92;150.70;;;-0.80;99.90;;;;;;6221778;23;20032;-79
2024/01/23 03:03:13;;;;;;;281.05;164.32;;;-0.70;1.00;;;;;;6221479;23;20044;-77
2024/01/23 03:05:40;;;;;;;288.73;168.35;;;-0.70;1.00;;;;;;6188330;23;20090;-79
2024/01/23 03:08:08;;;;;;;291.58;167.40;;;-0.70;99.90;;;;;;6196849;23;20353;-78
2024/01/23 03:10:35;;;;;;;300.40;171.07;;;-0.60;19.40;;;;;;6234449;23;20017;-79
2024/01/23 03:13:06;;;;;;;290.45;165.57;;;-0.70;1.00;;;;;;6226355;23;20056;-78
2024/01/23 03:15:35;;;;;;;289.83;163.73;;;-0.70;94.70;;;;;;6229585;23;20017;-78
2024/01/23 03:18:02;;;;;;;272.60;153.38;;;-0.70;1.00;;;;;;6229322;23;20062;-77
2024/01/23 03:20:30;;;;;;;299.00;172.75;;;-0.70;1.00;;;;;;6221687;23;20023;-77
2024/01/23 03:22:59;;;;;;;284.60;158.25;;;-0.60;1.00;;;;;;6222187;23;20039;-77
2024/01/23 03:25:27;;;;;;;282.15;158.82;;;-0.70;1.00;;;;;;6184686;23;20022;-78
2024/01/23 03:27:55;;;;;;;269.92;156.45;;;-0.70;1.00;;;;;;6222006;23;20016;-79
2024/01/23 03:30:29;;;;;;;279.27;158.48;;;-0.70;1.00;;;;;;6221376;23;20025;-78
2024/01/23 03:32:59;;;;;;;268.20;150.50;;;-0.70;1.00;;;;;;6185864;23;20016;-78
2024/01/23 03:35:26;;;;;;;279.27;153.23;;;-0.70;1.00;;;;;;6186703;23;20262;-80
2024/01/23 03:37:55;;;;;;;253.45;141.55;;;-0.60;99.90;;;;;;6227430;23;20023;-77
2024/01/23 03:40:22;;;;;;;209.13;118.03;;;-0.80;1.00;;;;;;6187911;23;20036;-78
2024/01/23 03:42:50;;;;;;;235.57;134.43;;;-0.80;1.00;;;;;;6225095;23;20016;-79
2024/01/23 03:45:18;;;;;;;286.60;165.65;;;-0.70;1.00;;;;;;6187950;23;20048;-76
2024/01/23 03:47:45;;;;;;;266.35;153.07;;;-0.80;1.00;;;;;;6224823;23;20024;-78
2024/01/23 03:50:14;;;;;;;278.38;157.00;;;-0.70;1.00;;;;;;6227262;23;20012;-79
2024/01/23 03:52:42;;;;;;;271.85;150.88;;;-0.70;1.00;;;;;;6229420;23;20017;-78
2024/01/23 03:55:11;;;;;;;274.63;154.02;;;-0.60;1.00;;;;;;6227045;23;20100;-77
2024/01/23 03:57:39;;;;;;;263.30;151.35;;;-0.50;1.00;;;;;;6191261;23;20091;-79
2024/01/23 04:00:08;;;;;;;258.70;146.80;;;-0.60;1.00;;;;;;6224101;23;20031;-78
2024/01/23 04:02:41;;;;;;;;;;;-0.60;1.00;;;;;;6224659;23;20012;-77
2024/01/23 04:05:10;;;;;;;239.43;138.27;;;-0.60;99.90;;;;;;6225665;23;19919;-77
2024/01/23 04:07:39;;;;;;;233.85;137.52;;;-0.60;1.00;;;;;;6191204;23;20450;-78
2024/01/23 04:10:09;;;;;;;219.77;128.88;;;-0.50;1.00;;;;;;6230087;23;20505;-76
2024/01/23 04:12:36;;;;;;;250.20;145.00;;;-0.40;1.00;;;;;;6192247;23;20013;-78
2024/01/23 04:15:05;;;;;;;253.85;147.40;;;-0.40;99.90;;;;;;6223661;23;20016;-76
2024/01/23 04:17:32;;;;;;;252.18;144.63;;;-0.50;1.00;;;;;;6186903;23;20017;-78
2024/01/23 04:20:00;;;;;;;258.58;146.43;;;-0.50;1.00;;;;;;6223443;23;20454;-78
2024/01/23 04:22:27;;;;;;;239.70;139.93;;;-0.70;1.00;;;;;;6223019;23;20023;-77
2024/01/23 04:24:56;;;;;;;212.48;121.70;;;-0.70;99.90;;;;;;6222906;23;20024;-78
2024/01/23 04:27:24;;;;;;;218.20;125.43;;;-0.60;1.00;;;;;;6222898;23;20019;-77
2024/01/23 04:29:52;;;;;;;215.90;127.03;;;-0.60;99.90;;;;;;6223233;23;20013;-77
2024/01/23 04:32:20;;;;;;;215.18;125.55;;;-0.60;38.40;;;;;;6223017;23;20020;-77
2024/01/23 04:34:47;;;;;;;222.00;127.40;;;-0.70;93.90;;;;;;6222538;23;20095;-78
2024/01/23 04:37:16;;;;;;;210.48;124.28;;;-0.70;99.90;;;;;;6223038;23;20012;-79
2024/01/23 04:39:44;;;;;;;233.52;132.18;;;-0.70;1.00;;;;;;6185902;23;20020;-78
2024/01/23 04:42:13;;;;;;;227.23;128.45;;;-0.60;99.90;;;;;;6222134;23;20016;-78
2024/01/23 04:44:40;;;;;;;227.57;131.30;;;-0.50;99.90;;;;;;6221609;23;20099;-79
2024/01/23 04:47:08;;;;;;;210.48;121.35;;;-0.40;17.80;;;;;;6223267;23;20012;-79
2024/01/23 04:49:35;;;;;;;239.32;130.80;;;-0.30;99.90;;;;;;6185921;23;20123;-76
2024/01/23 04:52:03;;;;;;;218.60;128.65;;;-0.30;1.00;;;;;;6222680;23;20025;-77
2024/01/23 04:54:31;;;;;;;202.20;119.75;;;-0.30;1.00;;;;;;6221503;23;20079;-78
2024/01/23 04:56:58;;;;;;;194.43;117.97;;;-0.10;1.00;;;;;;6223414;23;20014;-79
2024/01/23 04:59:27;;;;;;;198.55;114.15;;;-0.20;1.00;;;;;;6222789;23;20074;-77
2024/01/23 05:01:55;;;;;;;198.35;113.57;;;-0.20;99.90;;;;;;6222589;23;20445;-78
2024/01/23 05:04:22;;;;;;;197.32;116.13;;;-0.20;99.90;;;;;;6185157;23;20031;-77
2024/01/23 05:06:50;;;;;;;194.45;113.55;;;-0.10;1.00;;;;;;6222233;23;20025;-79
2024/01/23 05:09:19;;;;;;;198.40;116.22;;;0.00;1.00;;;;;;6186412;23;20322;-79
2024/01/23 05:11:47;;;;;;;201.55;115.80;;;0.10;1.00;;;;;;6185605;23;20322;-79
2024/01/23 05:14:17;;;;;;;212.00;118.35;;;0.20;1.00;;;;;;6221830;23;20016;-79
2024/01/23 05:16:45;;;;;;;303.35;144.75;;;0.30;1.00;;;;;;6186107;23;20031;-79
2024/01/23 05:19:13;;;;;;;245.85;124.38;;;0.30;1.00;;;;;;6186737;23;20024;-78
2024/01/23 05:21:40;;;;;;;183.48;104.07;;;0.40;1.00;;;;;;6226196;23;20560;-79
2024/01/23 05:24:08;;;;;;;199.52;109.60;;;0.50;1.00;;;;;;6232321;23;20197;-79
2024/01/23 05:26:36;;;;;;;210.90;117.25;;;0.50;99.90;;;;;;6232124;23;20076;-79
2024/01/23 05:29:03;;;;;;;179.38;105.47;;;0.50;38.90;;;;;;6191175;23;20024;-77
2024/01/23 05:31:31;;;;;;;187.55;104.47;;;0.50;1.00;;;;;;6187041;23;20017;-79
2024/01/23 05:34:00;;;;;;;172.65;98.57;;;0.60;9.10;;;;;;6221293;23;20028;-78
2024/01/23 05:36:27;;;;;;;210.25;115.35;;;0.70;4.50;;;;;;6226366;23;20016;-79
2024/01/23 05:38:55;;;;;;;176.68;105.75;;;0.70;1.00;;;;;;6227749;23;20039;-78
2024/01/23 05:41:22;;;;;;;203.02;115.85;;;0.70;1.00;;;;;;6209675;23;20017;-78
2024/01/23 05:43:51;;;;;;;205.02;120.20;;;0.70;1.00;;;;;;6244558;23;20133;-78
2024/01/23 05:46:19;;;;;;;213.68;126.40;;;0.80;99.90;;;;;;6237926;23;20017;-79
2024/01/23 05:48:46;;;;;;;206.52;122.28;;;0.80;99.90;;;;;;6224902;23;20012;-78
2024/01/23 05:51:15;;;;;;;217.57;125.82;;;0.90;1.00;;;;;;6223796;23;20396;-79
2024/01/23 05:53:43;;;;;;;225.85;128.80;;;0.90;1.00;;;;;;6188917;23;20031;-78
2024/01/23 05:56:10;;;;;;;203.23;120.68;;;0.80;1.00;;;;;;6241598;22;20018;-77
2024/01/23 05:58:43;;;;;;;208.60;122.60;;;0.90;1.00;;;;;;6233149;22;20449;-79
2024/01/23 06:01:12;;;;;;;199.45;116.07;;;0.90;1.00;;;;;;6191128;23;20023;-76
2024/01/23 06:03:40;;;;;;;197.02;121.22;;;0.90;99.90;;;;;;6223117;23;20017;-78
2024/01/23 06:06:07;;;;;;;206.52;123.22;;;0.90;99.90;;;;;;6224362;23;20017;-78
2024/01/23 06:08:36;;;;;;;214.27;126.07;;;0.90;1.00;;;;;;6222659;23;20016;-79
2024/01/23 06:11:04;;;;;;;232.65;136.52;;;0.80;1.00;;;;;;6222493;23;20070;-77
2024/01/23 06:13:32;;;;;;;290.17;165.77;;;0.80;99.90;;;;;;6186493;23;20012;-78
2024/01/23 06:15:59;;;;;;;279.13;163.15;;;0.90;99.90;;;;;;6222119;23;20388;-78
2024/01/23 06:18:30;;;;;;;262.52;153.13;;;0.90;1.00;;;;;;6222181;23;20403;-77
2024/01/23 06:20:58;;;;;;;264.60;155.02;;;1.00;99.90;;;;;;6221802;23;20020;-78
2024/01/23 06:23:25;;;;;;;276.92;164.07;;;1.00;99.90;;;;;;6222079;23;20335;-78
2024/01/23 06:25:54;;;;;;;305.92;176.90;;;1.10;1.00;;;;;;6221216;23;20495;-78
2024/01/23 06:28:24;;;;;;;322.80;184.55;;;1.10;1.00;;;;;;6222287;23;20012;-79
2024/01/23 06:30:51;;;;;;;315.25;184.27;;;1.10;1.00;;;;;;6221657;23;20054;-77
2024/01/23 06:33:19;;;;;;;322.58;189.60;;;1.20;1.00;;;;;;6221517;23;20027;-78
2024/01/23 06:35:46;;;;;;;316.50;186.95;;;1.20;1.00;;;;;;6221740;23;20028;-78
2024/01/23 06:38:14;;;;;;;328.50;197.20;;;1.10;1.00;;;;;;6222016;23;20016;-77
2024/01/23 06:40:41;;;;;;;350.00;202.30;;;1.10;1.00;;;;;;6222238;23;20341;-79
2024/01/23 06:43:11;;;;;;;347.02;205.30;;;1.10;1.00;;;;;;6221959;23;20094;-79
2024/01/23 06:45:39;;;;;;;362.98;220.18;;;1.10;1.00;;;;;;6223634;23;20020;-76
2024/01/23 06:48:07;;;;;;;363.23;219.07;;;1.10;28.90;;;;;;6223239;23;20043;-77
2024/01/23 06:50:34;;;;;;;372.48;218.10;;;1.20;99.90;;;;;;6222249;23;20009;-79
2024/01/23 06:53:03;;;;;;;363.00;218.15;;;1.30;99.90;;;;;;6222545;23;20099;-77
2024/01/23 06:55:30;;;;;;;354.65;216.32;;;1.40;99.90;;;;;;6221194;23;20027;-76
2024/01/23 06:57:58;;;;;;;331.42;200.95;;;1.30;97.90;;;;;;6222042;23;20092;-78
2024/01/23 07:00:27;;;;;;;348.55;214.18;;;1.20;99.90;;;;;;6185509;23;20071;-77
2024/01/23 07:02:55;;;;;;;341.27;212.80;;;1.20;99.90;;;;;;6221645;23;20084;-78
2024/01/23 07:05:22;;;;;;;397.65;249.25;;;1.20;99.90;;;;;;6221508;23;20087;-78
2024/01/23 07:07:50;;;;;;;358.55;224.00;;;1.20;99.90;;;;;;6221908;23;20485;-77
2024/01/23 07:10:19;;;;;;;371.33;238.10;;;1.10;99.90;;;;;;6184052;23;20020;-78
2024/01/23 07:12:46;;;;;;;332.40;214.07;;;1.10;99.90;;;;;;6220298;23;20115;-76
2024/01/23 07:15:14;;;;;;;319.42;203.43;;;1.10;99.90;;;;;;6182508;23;20031;-77
2024/01/23 07:17:43;;;;;;;284.73;180.57;;;1.20;99.90;;;;;;6220444;23;20013;-75
2024/01/23 07:20:11;;;;;;;299.42;182.77;;;1.40;99.90;;;;;;6220420;23;20017;-77
2024/01/23 07:22:38;;;;;;;300.15;188.25;;;1.40;99.90;;;;;;6221797;23;20251;-77
2024/01/23 07:25:06;;;;;;;339.35;209.38;;;1.60;99.90;;;;;;6221102;23;20039;-77
2024/01/23 07:27:34;;;;;;;314.02;190.38;;;1.60;99.90;;;;;;6184851;23;20017;-77
2024/01/23 07:30:02;;;;;;;317.88;192.38;;;1.80;99.90;;;;;;6221915;23;20017;-76
2024/01/23 07:32:29;;;;;;;319.42;186.75;;;1.80;99.90;;;;;;6221738;23;20017;-76
2024/01/23 07:34:59;;;;;;;312.23;185.13;;;1.70;99.90;;;;;;6222833;23;20433;-78
2024/01/23 07:37:26;;;;;;;329.65;191.85;;;1.90;99.90;;;;;;6227027;23;20019;-80
2024/01/23 07:39:54;;;;;;;336.38;202.55;;;1.90;99.90;;;;;;6223718;23;20009;-78
2024/01/23 07:42:21;;;;;;;353.85;215.13;;;2.00;99.90;;;;;;6185848;23;20020;-78
2024/01/23 07:44:49;;;;;;;326.85;187.23;;;2.00;99.90;;;;;;6221247;23;20043;-76
2024/01/23 07:47:16;;;;;;;306.13;179.20;;;1.90;99.90;;;;;;6222015;23;20017;-78
2024/01/23 07:49:44;;;;;;;318.77;190.65;;;2.10;99.90;;;;;;6230227;23;20043;-78
2024/01/23 07:52:14;;;;;;;322.30;190.15;;;2.20;99.90;;;;;;6230063;23;20019;-77
2024/01/23 07:54:43;;;;;;;320.80;193.38;;;2.20;99.90;;;;;;6226565;23;20025;-76
2024/01/23 07:57:11;;;;;;;275.27;155.93;;;2.30;99.90;;;;;;6228918;23;20023;-79
2024/01/23 07:59:39;;;;;;;259.60;152.35;;;2.20;99.90;;;;;;6234358;23;20095;-77
2024/01/23 08:02:07;;;;;;;258.10;152.77;;;2.20;99.90;;;;;;6229316;23;20015;-79
2024/01/23 08:04:35;;;;;;;289.65;170.82;;;2.30;99.90;;;;;;6185400;23;20687;-78
2024/01/23 08:07:02;;;;;;;167.02;100.95;;;2.40;99.90;;;;;;6222237;23;20593;-77
2024/01/23 08:09:31;;;;;;;243.48;140.23;;;2.50;99.90;;;;;;6222298;23;20015;-78
2024/01/23 08:11:58;;;;;;;226.10;129.27;;;2.50;99.90;;;;;;6221970;23;20016;-79
2024/01/23 08:14:26;;;;;;;252.93;144.63;;;2.70;99.90;;;;;;6222477;23;20040;-78
2024/01/23 08:16:53;;;;;;;264.58;156.70;;;2.90;99.90;;;;;;6222538;23;20029;-77
2024/01/23 08:19:21;;;;;;;259.92;154.85;;;3.00;99.90;;;;;;6222282;23;20400;-80
2024/01/23 08:21:50;;;;;;;250.82;146.32;;;3.00;99.90;;;;;;6223892;23;20024;-78
2024/01/23 08:24:19;;;;;;;239.95;141.45;;;3.00;99.90;;;;;;6223274;23;20743;-79
2024/01/23 08:26:52;;;;;;;246.57;143.73;;;3.00;99.90;;;;;;6224472;23;20063;-78
2024/01/23 08:29:20;;;;;;;280.67;156.05;;;3.00;99.90;;;;;;6223471;23;20070;-79
2024/01/23 08:31:49;;;;;;;266.75;157.20;;;2.90;99.90;;;;;;6224045;23;20087;-79
2024/01/23 08:34:18;;;;;;;263.52;162.90;;;2.90;99.90;;;;;;6222632;23;20023;-79
2024/01/23 08:36:46;;;;;;;299.58;179.13;;;2.80;99.90;;;;;;6223542;23;20608;-78
2024/01/23 08:39:13;;;;;;;327.33;204.90;;;3.00;99.90;;;;;;6223405;23;20021;-77
2024/01/23 08:41:41;;;;;;;290.33;175.23;;;2.90;99.90;;;;;;6223532;23;20016;-79
2024/01/23 08:44:10;;;;;;;284.52;171.27;;;2.90;99.90;;;;;;6223027;23;20020;-78
2024/01/23 08:46:38;;;;;;;284.08;171.73;;;3.00;99.90;;;;;;6223383;23;20017;-78
2024/01/23 08:49:06;;;;;;;304.83;189.65;;;2.90;99.90;;;;;;6222617;23;20033;-78
2024/01/23 08:51:33;;;;;;;307.70;190.95;;;2.90;99.90;;;;;;6223315;23;20094;-78
2024/01/23 08:54:01;;;;;;;297.63;185.35;;;3.10;99.90;;;;;;6222216;23;20471;-78
2024/01/23 08:56:29;;;;;;;280.98;173.63;;;3.10;99.90;;;;;;6223067;23;20012;-79
2024/01/23 08:58:56;;;;;;;206.63;130.13;;;3.30;99.90;;;;;;6187086;23;20103;-77
2024/01/23 09:01:25;;;;;;;158.90;101.05;;;3.30;99.90;;;;;;6222641;23;20016;-77
2024/01/23 09:03:53;;;;;;;173.05;111.53;;;3.60;99.90;;;;;;6186585;23;20805;-78
2024/01/23 09:06:20;;;;;;;236.25;142.73;;;3.70;99.90;;;;;;6223433;23;20012;-76
2024/01/23 09:08:48;;;;;;;221.55;137.57;;;3.70;99.90;;;;;;6223650;23;20058;-77
2024/01/23 09:11:16;;;;;;;215.57;133.43;;;3.80;99.90;;;;;;6223748;23;20016;-80
2024/01/23 09:13:44;;;;;;;188.35;116.65;;;3.70;99.90;;;;;;6225932;23;20043;-78
2024/01/23 09:16:11;;;;;;;166.20;102.63;;;3.80;99.90;;;;;;6241089;23;20017;-77
2024/01/23 09:18:40;;;;;;;172.30;110.78;;;3.80;99.90;;;;;;6240602;23;20063;-77
2024/01/23 09:21:09;;;;;;;170.15;106.78;;;3.80;99.90;;;;;;6237811;23;20192;-76
2024/01/23 09:23:39;;;;;;;173.48;109.03;;;3.80;99.90;;;;;;6224532;23;20088;-77
2024/01/23 09:26:06;;;;;;;182.80;111.95;;;3.80;99.90;;;;;;6226947;23;20012;-77
2024/01/23 09:28:33;;;;;;;183.00;110.35;;;3.90;99.90;;;;;;6228505;23;20465;-79
2024/01/23 09:31:02;;;;;;;182.90;112.32;;;3.90;99.90;;;;;;6227706;23;20192;-78
2024/01/23 09:33:30;;;;;;;173.90;106.05;;;4.00;99.90;;;;;;6227454;23;20015;-78
2024/01/23 09:35:58;;;;;;;161.00;103.32;;;4.20;99.90;;;;;;6229080;23;20449;-77
2024/01/23 09:38:26;;;;;;;159.75;101.30;;;4.30;99.90;;;;;;6190158;23;20027;-77
2024/01/23 09:40:53;;;;;;;161.55;102.07;;;4.50;99.90;;;;;;6223521;23;20009;-77
2024/01/23 09:43:22;;;;;;;154.13;99.50;;;4.60;99.90;;;;;;6186152;23;20039;-78
2024/01/23 09:45:52;;;;;;;157.68;101.35;;;4.50;99.90;;;;;;6222786;23;20346;-78
2024/01/23 09:48:19;;;;;;;183.68;116.75;;;4.60;99.90;;;;;;6186268;23;20028;-78
2024/01/23 09:50:47;;;;;;;221.30;139.13;;;4.40;99.90;;;;;;6229190;23;20039;-78
2024/01/23 09:53:18;;;;;;;238.55;147.55;;;4.30;99.90;;;;;;6222843;23;20017;-77
2024/01/23 09:55:46;;;;;;;240.77;144.07;;;4.20;99.90;;;;;;6191902;23;20040;-80
2024/01/23 09:58:13;;;;;;;244.23;148.95;;;4.30;99.90;;;;;;6181632;23;20498;-78
2024/01/23 10:00:41;;;;;;;242.50;147.50;;;4.30;99.90;;;;;;6192666;23;20338;-77
2024/01/23 10:03:11;;;;;;;242.93;151.20;;;4.20;99.90;;;;;;6193243;23;20333;-76
2024/01/23 10:05:39;;;;;;;242.27;148.98;;;4.50;99.90;;;;;;6192074;23;20021;-77
2024/01/23 10:08:07;;;;;;;233.80;147.77;;;4.70;99.90;;;;;;6192614;23;20037;-77
2024/01/23 10:10:37;;;;;;;232.70;146.43;;;4.80;1.00;;;;;;6192477;23;20021;-76
2024/01/23 10:13:04;;;;;;;239.38;149.50;;;4.70;1.00;;;;;;6193208;23;20017;-77
2024/01/23 10:15:32;;;;;;;239.80;151.32;;;4.60;99.90;;;;;;6180650;23;20500;-79
2024/01/23 10:17:59;;;;;;;237.73;152.52;;;4.60;1.00;;;;;;6193070;23;20012;-79
2024/01/23 10:20:29;;;;;;;224.13;143.43;;;4.60;1.00;;;;;;6192509;23;20091;-78
2024/01/23 10:22:59;;;;;;;228.07;144.13;;;4.60;1.00;;;;;;6192985;23;20165;-78
2024/01/23 10:25:29;;;;;;;222.07;137.75;;;4.80;1.00;;;;;;6191621;23;20025;-77
2024/01/23 10:27:57;;;;;;;198.65;127.50;;;5.10;1.00;;;;;;6181380;23;20199;-78
2024/01/23 10:30:25;;;;;;;190.63;124.53;;;5.20;99.90;;;;;;6192443;23;20013;-78
2024/01/23 10:32:53;;;;;;;184.63;122.10;;;5.20;99.90;;;;;;6181493;23;20021;-78
2024/01/23 10:35:20;;;;;;;193.13;122.40;;;5.40;1.00;;;;;;6193052;23;20013;-79
2024/01/23 10:37:50;;;;;;;179.57;116.28;;;5.30;99.90;;;;;;6193679;23;20063;-78
2024/01/23 10:40:23;;;;;;;150.27;98.53;;;5.60;49.90;;;;;;6194369;23;20023;-78
2024/01/23 10:42:51;;;;;;;167.55;108.30;;;5.50;91.40;;;;;;6193595;23;20020;-78
2024/01/23 10:45:20;;;;;;;166.15;110.50;;;5.60;99.90;;;;;;6197214;23;20107;-78
2024/01/23 10:47:48;;;;;;;197.10;127.50;;;5.50;1.00;;;;;;6197030;23;20009;-78
2024/01/23 10:50:16;;;;;;;200.75;127.95;;;5.30;99.90;;;;;;6197388;23;20140;-78
2024/01/23 10:52:48;;;;;;;191.63;126.15;;;5.30;99.90;;;;;;6197140;23;20069;-77
2024/01/23 10:55:16;;;;;;;199.00;129.00;;;5.30;1.00;;;;;;6217221;23;20013;-77
2024/01/23 10:57:47;;;;;;;204.00;131.95;;;5.30;1.00;;;;;;6222956;23;20076;-78
2024/01/23 11:00:20;;;;;;;210.55;139.10;;;5.20;1.00;;;;;;6224091;23;20023;-78
2024/01/23 11:02:54;;;;;;;199.68;131.60;;;5.30;99.90;;;;;;6222901;23;20083;-78
2024/01/23 11:05:29;;;;;;;189.00;124.68;;;5.30;1.00;;;;;;6221805;23;20051;-78
2024/01/23 11:07:59;;;;;;;168.90;112.07;;;5.40;99.90;;;;;;6222268;23;20091;-79
2024/01/23 11:10:34;;;;;;;158.25;104.88;;;5.50;99.90;;;;;;6222982;23;20281;-79
2024/01/23 11:13:06;;;;;;;;;;;5.50;1.00;;;;;;6224194;23;20016;-78
2024/01/23 11:15:35;;;;;;;153.70;100.88;;;5.50;1.00;;;;;;6223447;23;19915;-77
2024/01/23 11:18:25;;;;;;;162.90;106.70;;;5.40;99.90;;;;;;6225419;23;20015;-78
2024/01/23 11:21:15;;;;;;;165.80;104.25;;;5.40;1.00;;;;;;6205904;23;20021;-76
2024/01/23 11:23:45;;;;;;;162.18;103.88;;;5.30;99.90;;;;;;6228516;23;20016;-80
2024/01/23 11:26:16;;;;;;;162.77;103.10;;;5.30;99.90;;;;;;6228620;23;20020;-77
2024/01/23 11:28:45;;;;;;;151.82;99.90;;;5.50;99.90;;;;;;6225922;23;20414;-78
2024/01/23 11:31:19;;;;;;;149.70;97.28;;;5.60;99.90;;;;;;6228525;23;20108;-79
2024/01/23 11:33:47;;;;;;;140.70;91.53;;;5.70;1.00;;;;;;6232819;23;20012;-78
2024/01/23 11:36:22;;;;;;;120.28;78.57;;;5.80;1.00;;;;;;6233758;23;20016;-78
2024/01/23 11:38:51;;;;;;;133.35;86.30;;;5.80;1.00;;;;;;6194619;23;20044;-79
2024/01/23 11:41:22;;;;;;;122.72;78.68;;;6.00;99.90;;;;;;6228861;23;20018;-78
2024/01/23 11:43:50;;;;;;;123.55;82.13;;;6.00;1.00;;;;;;6191430;23;20021;-79
2024/01/23 11:46:24;;;;;;;116.22;75.72;;;6.10;34.20;;;;;;6188643;23;20477;-79
2024/01/23 11:48:54;;;;;;;129.73;84.78;;;6.20;99.90;;;;;;6187482;23;20016;-79
2024/01/23 11:51:22;;;;;;;124.85;82.00;;;6.40;1.00;;;;;;6221692;23;20042;-77
2024/01/23 11:53:50;;;;;;;113.72;75.40;;;6.30;1.00;;;;;;6221293;23;20021;-80
2024/01/23 11:56:17;;;;;;;115.80;78.35;;;6.10;1.00;;;;;;6223755;23;20039;-77
2024/01/23 11:58:45;;;;;;;105.95;71.50;;;6.10;99.90;;;;;;6225299;23;20038;-77
2024/01/23 12:01:15;;;;;;;100.10;69.57;;;6.20;99.90;;;;;;6224585;23;20028;-77
2024/01/23 12:03:51;;;;;;;103.43;67.07;;;6.20;51.00;;;;;;6230753;23;20485;-79
2024/01/23 12:06:20;;;;;;;97.82;66.35;;;6.20;99.90;;;;;;6232402;23;20016;-77
2024/01/23 12:08:47;;;;;;;101.82;68.78;;;6.30;1.00;;;;;;6194706;23;20036;-77
2024/01/23 12:11:16;;;;;;;97.60;64.13;;;6.50;99.90;;;;;;6228129;23;20055;-78
2024/01/23 12:13:45;;;;;;;88.03;55.42;;;6.50;99.90;;;;;;6227854;23;20021;-77
2024/01/23 12:16:13;;;;;;;82.43;52.97;;;6.70;1.00;;;;;;6224248;23;20024;-77
2024/01/23 12:18:41;;;;;;;82.07;51.28;;;6.70;1.00;;;;;;6223630;23;20414;-78
2024/01/23 12:21:10;;;;;;;86.45;56.53;;;6.50;1.00;;;;;;6187584;23;20028;-77
2024/01/23 12:23:37;;;;;;;84.07;56.20;;;6.30;1.00;;;;;;6223047;23;20164;-76
2024/01/23 12:26:06;;;;;;;98.72;62.20;;;6.30;1.00;;;;;;6224250;23;20016;-79